Halifax, Canada
Current Conditions -  °F | °C
As of 11:00 PM on Saturday 20 Dec 2014 (Local Time) from CYHZ Reporting Station
Overcast Overcast  
Wind Chill: 23°   Ceiling: 2200
Heat Index: 30°   Visibility: 15mi
Dew Point: 25°   Wind: 7mph
Humidity: 80%   Direction: 20°NNE
Pressure: 30.28"   Gusts: NA
Location:  44.65°N, 63.57°W
Report Text: CYHZ 210300Z 02006KT 15SM OVC022 M01/M04 A3028 RMK SC8 SLP262
Loading
Personal Weather Stations






























Interactive Weather Map New forecast layout! Learn more

10-Day Weather Forecast

Advertisements
Track Severe Weather on mobile